sensor_id;sensor_type;location;lat;lon;timestamp;P1;durP1;ratioP1;P2;durP2;ratioP2
53644;SDS011;39547;45.554;12.068;2023-04-29T00:00:49;26.73;;;16.15;;
53644;SDS011;39547;45.554;12.068;2023-04-29T00:06:50;27.35;;;16.00;;
53644;SDS011;39547;45.554;12.068;2023-04-29T00:12:52;23.42;;;13.95;;
53644;SDS011;39547;45.554;12.068;2023-04-29T00:18:54;29.90;;;17.08;;
53644;SDS011;39547;45.554;12.068;2023-04-29T00:24:56;24.38;;;14.48;;
53644;SDS011;39547;45.554;12.068;2023-04-29T00:30:57;27.40;;;15.93;;
53644;SDS011;39547;45.554;12.068;2023-04-29T00:36:59;27.40;;;16.60;;
53644;SDS011;39547;45.554;12.068;2023-04-29T00:43:01;25.40;;;15.77;;
53644;SDS011;39547;45.554;12.068;2023-04-29T00:49:03;22.70;;;13.45;;
53644;SDS011;39547;45.554;12.068;2023-04-29T00:55:05;29.00;;;17.42;;
53644;SDS011;39547;45.554;12.068;2023-04-29T01:01:08;29.87;;;19.17;;
53644;SDS011;39547;45.554;12.068;2023-04-29T01:14:00;29.50;;;17.10;;
53644;SDS011;39547;45.554;12.068;2023-04-29T01:19:49;25.90;;;16.08;;
53644;SDS011;39547;45.554;12.068;2023-04-29T01:25:55;28.00;;;16.75;;
53644;SDS011;39547;45.554;12.068;2023-04-29T01:32:17;26.70;;;15.80;;
53644;SDS011;39547;45.554;12.068;2023-04-29T01:38:41;25.35;;;15.15;;
53644;SDS011;39547;45.554;12.068;2023-04-29T01:44:52;30.85;;;19.00;;
53644;SDS011;39547;45.554;12.068;2023-04-29T01:50:58;28.50;;;17.08;;
53644;SDS011;39547;45.554;12.068;2023-04-29T01:56:59;25.98;;;15.00;;
53644;SDS011;39547;45.554;12.068;2023-04-29T02:03:08;25.05;;;14.18;;
53644;SDS011;39547;45.554;12.068;2023-04-29T02:09:13;23.67;;;13.23;;
53644;SDS011;39547;45.554;12.068;2023-04-29T02:15:25;22.70;;;12.98;;
53644;SDS011;39547;45.554;12.068;2023-04-29T02:21:28;24.52;;;13.98;;
53644;SDS011;39547;45.554;12.068;2023-04-29T02:27:34;23.08;;;13.20;;
53644;SDS011;39547;45.554;12.068;2023-04-29T02:33:36;22.40;;;12.02;;
53644;SDS011;39547;45.554;12.068;2023-04-29T02:39:37;25.98;;;14.40;;
53644;SDS011;39547;45.554;12.068;2023-04-29T02:45:39;22.48;;;12.00;;
53644;SDS011;39547;45.554;12.068;2023-04-29T02:51:41;24.75;;;14.45;;
53644;SDS011;39547;45.554;12.068;2023-04-29T02:57:42;26.85;;;15.68;;
53644;SDS011;39547;45.554;12.068;2023-04-29T03:03:44;25.40;;;14.77;;
53644;SDS011;39547;45.554;12.068;2023-04-29T03:09:46;21.38;;;11.57;;
53644;SDS011;39547;45.554;12.068;2023-04-29T03:15:48;25.83;;;14.88;;
53644;SDS011;39547;45.554;12.068;2023-04-29T03:21:49;22.63;;;12.38;;
53644;SDS011;39547;45.554;12.068;2023-04-29T03:27:51;21.83;;;12.20;;
53644;SDS011;39547;45.554;12.068;2023-04-29T03:33:53;24.23;;;12.48;;
53644;SDS011;39547;45.554;12.068;2023-04-29T03:39:55;22.35;;;11.77;;
53644;SDS011;39547;45.554;12.068;2023-04-29T03:45:57;19.73;;;10.65;;
53644;SDS011;39547;45.554;12.068;2023-04-29T03:51:59;21.65;;;11.63;;
53644;SDS011;39547;45.554;12.068;2023-04-29T03:58:02;22.08;;;11.18;;
53644;SDS011;39547;45.554;12.068;2023-04-29T04:04:03;19.35;;;10.20;;
53644;SDS011;39547;45.554;12.068;2023-04-29T04:10:06;21.38;;;10.90;;
53644;SDS011;39547;45.554;12.068;2023-04-29T04:16:08;21.13;;;11.63;;
53644;SDS011;39547;45.554;12.068;2023-04-29T04:22:13;20.95;;;10.75;;
53644;SDS011;39547;45.554;12.068;2023-04-29T04:28:26;22.63;;;11.93;;
53644;SDS011;39547;45.554;12.068;2023-04-29T04:34:38;21.25;;;10.88;;
53644;SDS011;39547;45.554;12.068;2023-04-29T04:40:40;20.33;;;10.77;;
53644;SDS011;39547;45.554;12.068;2023-04-29T04:47:08;21.55;;;11.00;;
53644;SDS011;39547;45.554;12.068;2023-04-29T04:53:25;20.92;;;11.38;;
53644;SDS011;39547;45.554;12.068;2023-04-29T04:59:40;23.48;;;12.50;;
53644;SDS011;39547;45.554;12.068;2023-04-29T05:05:42;22.17;;;11.82;;
53644;SDS011;39547;45.554;12.068;2023-04-29T05:11:44;21.67;;;11.68;;
53644;SDS011;39547;45.554;12.068;2023-04-29T05:17:49;22.70;;;12.02;;
53644;SDS011;39547;45.554;12.068;2023-04-29T05:23:50;21.75;;;11.05;;
53644;SDS011;39547;45.554;12.068;2023-04-29T05:29:52;21.42;;;11.10;;
53644;SDS011;39547;45.554;12.068;2023-04-29T05:35:53;19.70;;;10.38;;
53644;SDS011;39547;45.554;12.068;2023-04-29T05:41:55;19.02;;;9.70;;
53644;SDS011;39547;45.554;12.068;2023-04-29T05:48:08;19.15;;;9.90;;
53644;SDS011;39547;45.554;12.068;2023-04-29T05:54:10;21.08;;;10.38;;
53644;SDS011;39547;45.554;12.068;2023-04-29T06:00:12;17.30;;;8.98;;
53644;SDS011;39547;45.554;12.068;2023-04-29T06:06:16;19.23;;;9.70;;
53644;SDS011;39547;45.554;12.068;2023-04-29T06:12:37;19.00;;;9.85;;
53644;SDS011;39547;45.554;12.068;2023-04-29T06:18:38;19.92;;;10.52;;
53644;SDS011;39547;45.554;12.068;2023-04-29T06:24:41;18.95;;;10.10;;
53644;SDS011;39547;45.554;12.068;2023-04-29T06:30:44;21.73;;;10.55;;
53644;SDS011;39547;45.554;12.068;2023-04-29T06:36:46;21.90;;;11.30;;
53644;SDS011;39547;45.554;12.068;2023-04-29T06:43:13;20.30;;;10.50;;
53644;SDS011;39547;45.554;12.068;2023-04-29T06:49:15;21.30;;;11.73;;
53644;SDS011;39547;45.554;12.068;2023-04-29T06:55:16;21.23;;;11.23;;
53644;SDS011;39547;45.554;12.068;2023-04-29T07:01:18;21.63;;;11.20;;
53644;SDS011;39547;45.554;12.068;2023-04-29T07:07:19;21.65;;;11.48;;
53644;SDS011;39547;45.554;12.068;2023-04-29T07:13:21;21.13;;;11.18;;
53644;SDS011;39547;45.554;12.068;2023-04-29T07:19:24;20.33;;;9.23;;
53644;SDS011;39547;45.554;12.068;2023-04-29T07:25:26;17.35;;;8.88;;
53644;SDS011;39547;45.554;12.068;2023-04-29T07:31:29;15.93;;;8.18;;
53644;SDS011;39547;45.554;12.068;2023-04-29T07:37:31;16.67;;;8.77;;
53644;SDS011;39547;45.554;12.068;2023-04-29T07:43:32;16.65;;;8.10;;
53644;SDS011;39547;45.554;12.068;2023-04-29T07:49:34;20.45;;;10.43;;
53644;SDS011;39547;45.554;12.068;2023-04-29T07:55:38;17.30;;;8.77;;
53644;SDS011;39547;45.554;12.068;2023-04-29T08:01:40;18.58;;;8.93;;
53644;SDS011;39547;45.554;12.068;2023-04-29T08:07:42;15.90;;;7.20;;
53644;SDS011;39547;45.554;12.068;2023-04-29T08:13:44;16.70;;;8.10;;
53644;SDS011;39547;45.554;12.068;2023-04-29T08:19:46;16.42;;;7.32;;
53644;SDS011;39547;45.554;12.068;2023-04-29T08:25:48;15.70;;;7.05;;
53644;SDS011;39547;45.554;12.068;2023-04-29T08:31:51;16.77;;;8.13;;
53644;SDS011;39547;45.554;12.068;2023-04-29T08:37:53;15.63;;;6.07;;
53644;SDS011;39547;45.554;12.068;2023-04-29T08:43:54;17.20;;;7.20;;
53644;SDS011;39547;45.554;12.068;2023-04-29T08:49:58;15.60;;;6.50;;
53644;SDS011;39547;45.554;12.068;2023-04-29T08:56:07;14.60;;;6.47;;
53644;SDS011;39547;45.554;12.068;2023-04-29T09:02:12;12.77;;;5.15;;
53644;SDS011;39547;45.554;12.068;2023-04-29T09:08:22;13.35;;;5.32;;
53644;SDS011;39547;45.554;12.068;2023-04-29T09:14:24;14.77;;;6.32;;
53644;SDS011;39547;45.554;12.068;2023-04-29T09:20:26;18.27;;;7.32;;
53644;SDS011;39547;45.554;12.068;2023-04-29T09:26:34;15.70;;;6.85;;
53644;SDS011;39547;45.554;12.068;2023-04-29T09:32:42;14.57;;;6.60;;
53644;SDS011;39547;45.554;12.068;2023-04-29T09:38:53;15.13;;;6.72;;
53644;SDS011;39547;45.554;12.068;2023-04-29T09:44:55;14.68;;;5.90;;
53644;SDS011;39547;45.554;12.068;2023-04-29T09:51:00;15.35;;;6.30;;
53644;SDS011;39547;45.554;12.068;2023-04-29T09:57:03;15.52;;;5.70;;
53644;SDS011;39547;45.554;12.068;2023-04-29T10:03:07;13.77;;;5.85;;
53644;SDS011;39547;45.554;12.068;2023-04-29T10:09:10;15.95;;;6.53;;
53644;SDS011;39547;45.554;12.068;2023-04-29T10:15:19;17.00;;;6.95;;
53644;SDS011;39547;45.554;12.068;2023-04-29T10:21:30;12.70;;;4.97;;
53644;SDS011;39547;45.554;12.068;2023-04-29T10:27:31;14.00;;;5.65;;
53644;SDS011;39547;45.554;12.068;2023-04-29T10:33:34;16.10;;;7.13;;
53644;SDS011;39547;45.554;12.068;2023-04-29T10:39:57;15.30;;;6.05;;
53644;SDS011;39547;45.554;12.068;2023-04-29T10:46:21;13.73;;;5.32;;
53644;SDS011;39547;45.554;12.068;2023-04-29T10:52:26;13.38;;;5.57;;
53644;SDS011;39547;45.554;12.068;2023-04-29T10:58:32;12.70;;;5.10;;
53644;SDS011;39547;45.554;12.068;2023-04-29T11:05:05;13.68;;;5.25;;
53644;SDS011;39547;45.554;12.068;2023-04-29T11:11:12;12.18;;;4.53;;
53644;SDS011;39547;45.554;12.068;2023-04-29T11:17:15;14.75;;;6.10;;
53644;SDS011;39547;45.554;12.068;2023-04-29T11:23:17;13.73;;;5.75;;
53644;SDS011;39547;45.554;12.068;2023-04-29T11:29:19;13.82;;;5.05;;
53644;SDS011;39547;45.554;12.068;2023-04-29T11:35:22;14.07;;;5.60;;
53644;SDS011;39547;45.554;12.068;2023-04-29T11:41:23;13.55;;;5.78;;
53644;SDS011;39547;45.554;12.068;2023-04-29T11:47:26;15.00;;;6.13;;
53644;SDS011;39547;45.554;12.068;2023-04-29T11:53:29;12.73;;;5.30;;
53644;SDS011;39547;45.554;12.068;2023-04-29T11:59:31;13.65;;;6.03;;
53644;SDS011;39547;45.554;12.068;2023-04-29T12:05:32;13.93;;;6.43;;
53644;SDS011;39547;45.554;12.068;2023-04-29T12:11:35;15.27;;;6.75;;
53644;SDS011;39547;45.554;12.068;2023-04-29T12:17:37;15.10;;;6.80;;
53644;SDS011;39547;45.554;12.068;2023-04-29T12:23:39;13.68;;;5.65;;
53644;SDS011;39547;45.554;12.068;2023-04-29T12:29:41;15.73;;;6.85;;
53644;SDS011;39547;45.554;12.068;2023-04-29T12:35:42;13.50;;;5.53;;
53644;SDS011;39547;45.554;12.068;2023-04-29T12:41:44;16.10;;;6.90;;
53644;SDS011;39547;45.554;12.068;2023-04-29T12:47:46;14.25;;;6.18;;
53644;SDS011;39547;45.554;12.068;2023-04-29T12:53:47;15.77;;;7.60;;
53644;SDS011;39547;45.554;12.068;2023-04-29T12:59:49;16.77;;;6.88;;
53644;SDS011;39547;45.554;12.068;2023-04-29T13:05:50;15.73;;;7.07;;
53644;SDS011;39547;45.554;12.068;2023-04-29T13:11:54;15.25;;;7.07;;
53644;SDS011;39547;45.554;12.068;2023-04-29T13:17:55;16.30;;;7.43;;
53644;SDS011;39547;45.554;12.068;2023-04-29T13:23:58;14.77;;;6.50;;
53644;SDS011;39547;45.554;12.068;2023-04-29T13:29:59;15.13;;;6.78;;
53644;SDS011;39547;45.554;12.068;2023-04-29T13:36:01;15.25;;;6.45;;
53644;SDS011;39547;45.554;12.068;2023-04-29T13:42:02;14.05;;;6.53;;
53644;SDS011;39547;45.554;12.068;2023-04-29T13:48:04;17.10;;;7.70;;
53644;SDS011;39547;45.554;12.068;2023-04-29T13:54:05;15.65;;;6.72;;
53644;SDS011;39547;45.554;12.068;2023-04-29T14:00:07;15.55;;;7.10;;
53644;SDS011;39547;45.554;12.068;2023-04-29T14:06:12;18.20;;;7.60;;
53644;SDS011;39547;45.554;12.068;2023-04-29T14:12:14;14.85;;;6.85;;
53644;SDS011;39547;45.554;12.068;2023-04-29T14:18:15;14.88;;;7.07;;
53644;SDS011;39547;45.554;12.068;2023-04-29T14:24:17;17.08;;;8.68;;
53644;SDS011;39547;45.554;12.068;2023-04-29T14:30:18;17.08;;;7.90;;
53644;SDS011;39547;45.554;12.068;2023-04-29T14:36:20;16.05;;;7.35;;
53644;SDS011;39547;45.554;12.068;2023-04-29T14:42:21;16.42;;;7.15;;
53644;SDS011;39547;45.554;12.068;2023-04-29T14:48:22;17.73;;;7.10;;
53644;SDS011;39547;45.554;12.068;2023-04-29T14:54:24;16.35;;;7.88;;
53644;SDS011;39547;45.554;12.068;2023-04-29T15:00:26;16.13;;;7.68;;
53644;SDS011;39547;45.554;12.068;2023-04-29T15:06:28;15.90;;;7.00;;
53644;SDS011;39547;45.554;12.068;2023-04-29T15:12:30;16.90;;;8.27;;
53644;SDS011;39547;45.554;12.068;2023-04-29T15:18:32;16.52;;;7.70;;
53644;SDS011;39547;45.554;12.068;2023-04-29T15:24:33;17.30;;;6.97;;
53644;SDS011;39547;45.554;12.068;2023-04-29T15:30:35;14.90;;;5.82;;
53644;SDS011;39547;45.554;12.068;2023-04-29T15:36:37;13.35;;;5.55;;
53644;SDS011;39547;45.554;12.068;2023-04-29T15:42:38;15.80;;;5.50;;
53644;SDS011;39547;45.554;12.068;2023-04-29T15:48:40;13.55;;;4.90;;
53644;SDS011;39547;45.554;12.068;2023-04-29T15:54:42;14.80;;;5.70;;
53644;SDS011;39547;45.554;12.068;2023-04-29T16:00:43;13.63;;;5.60;;
53644;SDS011;39547;45.554;12.068;2023-04-29T16:06:45;14.40;;;5.93;;
53644;SDS011;39547;45.554;12.068;2023-04-29T16:12:47;14.82;;;6.28;;
53644;SDS011;39547;45.554;12.068;2023-04-29T16:18:49;14.73;;;6.32;;
53644;SDS011;39547;45.554;12.068;2023-04-29T16:24:53;13.25;;;5.70;;
53644;SDS011;39547;45.554;12.068;2023-04-29T16:30:55;13.80;;;5.63;;
53644;SDS011;39547;45.554;12.068;2023-04-29T16:36:56;15.40;;;5.60;;
53644;SDS011;39547;45.554;12.068;2023-04-29T16:42:58;14.27;;;5.25;;
53644;SDS011;39547;45.554;12.068;2023-04-29T16:48:59;16.30;;;6.78;;
53644;SDS011;39547;45.554;12.068;2023-04-29T16:55:01;15.77;;;6.80;;
53644;SDS011;39547;45.554;12.068;2023-04-29T17:01:03;16.25;;;6.50;;
53644;SDS011;39547;45.554;12.068;2023-04-29T17:07:04;15.93;;;7.55;;
53644;SDS011;39547;45.554;12.068;2023-04-29T17:13:06;13.40;;;5.80;;
53644;SDS011;39547;45.554;12.068;2023-04-29T17:19:08;13.88;;;5.10;;
53644;SDS011;39547;45.554;12.068;2023-04-29T17:25:09;14.05;;;5.45;;
53644;SDS011;39547;45.554;12.068;2023-04-29T17:31:11;12.70;;;4.75;;
53644;SDS011;39547;45.554;12.068;2023-04-29T17:37:14;14.60;;;5.10;;
53644;SDS011;39547;45.554;12.068;2023-04-29T17:43:17;13.88;;;4.75;;
53644;SDS011;39547;45.554;12.068;2023-04-29T17:49:18;13.38;;;5.35;;
53644;SDS011;39547;45.554;12.068;2023-04-29T17:55:20;12.45;;;4.82;;
53644;SDS011;39547;45.554;12.068;2023-04-29T18:01:21;14.52;;;6.07;;
53644;SDS011;39547;45.554;12.068;2023-04-29T18:07:23;13.45;;;5.05;;
53644;SDS011;39547;45.554;12.068;2023-04-29T18:13:25;13.93;;;5.50;;
53644;SDS011;39547;45.554;12.068;2023-04-29T18:19:26;14.20;;;5.80;;
53644;SDS011;39547;45.554;12.068;2023-04-29T18:25:28;14.73;;;6.30;;
53644;SDS011;39547;45.554;12.068;2023-04-29T18:31:29;14.45;;;6.20;;
53644;SDS011;39547;45.554;12.068;2023-04-29T18:37:31;16.95;;;6.57;;
53644;SDS011;39547;45.554;12.068;2023-04-29T18:43:32;15.77;;;6.60;;
53644;SDS011;39547;45.554;12.068;2023-04-29T18:49:34;16.40;;;7.38;;
53644;SDS011;39547;45.554;12.068;2023-04-29T18:55:36;16.40;;;7.38;;
53644;SDS011;39547;45.554;12.068;2023-04-29T19:01:37;15.43;;;6.82;;
53644;SDS011;39547;45.554;12.068;2023-04-29T19:07:39;15.65;;;7.75;;
53644;SDS011;39547;45.554;12.068;2023-04-29T19:13:41;17.00;;;8.00;;
53644;SDS011;39547;45.554;12.068;2023-04-29T19:19:42;17.60;;;7.63;;
53644;SDS011;39547;45.554;12.068;2023-04-29T19:25:44;14.68;;;6.90;;
53644;SDS011;39547;45.554;12.068;2023-04-29T19:31:45;15.40;;;7.25;;
53644;SDS011;39547;45.554;12.068;2023-04-29T19:37:46;14.80;;;6.53;;
53644;SDS011;39547;45.554;12.068;2023-04-29T19:43:48;15.75;;;7.47;;
53644;SDS011;39547;45.554;12.068;2023-04-29T19:49:49;15.88;;;7.38;;
53644;SDS011;39547;45.554;12.068;2023-04-29T19:55:51;15.43;;;7.30;;
53644;SDS011;39547;45.554;12.068;2023-04-29T20:01:56;16.33;;;8.18;;
53644;SDS011;39547;45.554;12.068;2023-04-29T20:07:58;19.85;;;9.30;;
53644;SDS011;39547;45.554;12.068;2023-04-29T20:13:59;20.00;;;10.98;;
53644;SDS011;39547;45.554;12.068;2023-04-29T20:20:01;21.08;;;11.13;;
53644;SDS011;39547;45.554;12.068;2023-04-29T20:26:02;24.48;;;13.40;;
53644;SDS011;39547;45.554;12.068;2023-04-29T20:32:04;23.45;;;12.43;;
53644;SDS011;39547;45.554;12.068;2023-04-29T20:38:05;24.92;;;13.63;;
53644;SDS011;39547;45.554;12.068;2023-04-29T20:44:07;25.15;;;13.32;;
53644;SDS011;39547;45.554;12.068;2023-04-29T20:50:08;23.00;;;13.02;;
53644;SDS011;39547;45.554;12.068;2023-04-29T20:56:10;25.05;;;13.45;;
53644;SDS011;39547;45.554;12.068;2023-04-29T21:02:12;28.35;;;16.00;;
53644;SDS011;39547;45.554;12.068;2023-04-29T21:08:13;20.63;;;11.50;;
53644;SDS011;39547;45.554;12.068;2023-04-29T21:14:14;28.48;;;16.38;;
53644;SDS011;39547;45.554;12.068;2023-04-29T21:20:16;24.52;;;13.98;;
53644;SDS011;39547;45.554;12.068;2023-04-29T21:26:17;25.30;;;14.73;;
53644;SDS011;39547;45.554;12.068;2023-04-29T21:32:20;22.38;;;12.23;;
53644;SDS011;39547;45.554;12.068;2023-04-29T21:38:21;24.08;;;13.63;;
53644;SDS011;39547;45.554;12.068;2023-04-29T21:44:22;25.63;;;14.98;;
53644;SDS011;39547;45.554;12.068;2023-04-29T21:50:24;25.00;;;14.38;;
53644;SDS011;39547;45.554;12.068;2023-04-29T21:56:26;25.42;;;14.55;;
53644;SDS011;39547;45.554;12.068;2023-04-29T22:02:27;24.63;;;15.25;;
53644;SDS011;39547;45.554;12.068;2023-04-29T22:08:37;25.40;;;14.35;;
53644;SDS011;39547;45.554;12.068;2023-04-29T22:14:39;26.98;;;14.93;;
53644;SDS011;39547;45.554;12.068;2023-04-29T22:20:40;25.40;;;14.88;;
53644;SDS011;39547;45.554;12.068;2023-04-29T22:26:41;25.17;;;14.73;;
53644;SDS011;39547;45.554;12.068;2023-04-29T22:32:43;27.38;;;15.93;;
53644;SDS011;39547;45.554;12.068;2023-04-29T22:38:44;24.58;;;13.80;;
53644;SDS011;39547;45.554;12.068;2023-04-29T22:44:46;22.73;;;13.23;;
53644;SDS011;39547;45.554;12.068;2023-04-29T22:50:51;23.30;;;13.20;;
53644;SDS011;39547;45.554;12.068;2023-04-29T22:56:53;23.88;;;13.63;;
53644;SDS011;39547;45.554;12.068;2023-04-29T23:02:54;25.60;;;15.25;;
53644;SDS011;39547;45.554;12.068;2023-04-29T23:08:56;21.48;;;12.30;;
53644;SDS011;39547;45.554;12.068;2023-04-29T23:14:57;22.13;;;12.75;;
53644;SDS011;39547;45.554;12.068;2023-04-29T23:20:58;21.73;;;11.82;;
53644;SDS011;39547;45.554;12.068;2023-04-29T23:27:00;23.33;;;12.77;;
53644;SDS011;39547;45.554;12.068;2023-04-29T23:33:03;20.88;;;11.65;;
53644;SDS011;39547;45.554;12.068;2023-04-29T23:39:04;25.77;;;13.77;;
53644;SDS011;39547;45.554;12.068;2023-04-29T23:45:06;23.50;;;13.05;;
53644;SDS011;39547;45.554;12.068;2023-04-29T23:51:08;26.85;;;14.85;;
53644;SDS011;39547;45.554;12.068;2023-04-29T23:57:09;27.80;;;16.42;;
